createdAt,value
2022-10-01T00:01:45.869Z,5.00
2022-10-01T00:04:12.435Z,4.93
2022-10-01T00:06:39.049Z,4.53
2022-10-01T00:09:05.647Z,4.40
2022-10-01T00:11:34.459Z,4.30
2022-10-01T00:14:01.842Z,5.15
2022-10-01T00:16:29.961Z,4.60
2022-10-01T00:18:58.003Z,4.35
2022-10-01T00:21:29.760Z,4.10
2022-10-01T00:23:59.057Z,4.57
2022-10-01T00:26:28.301Z,4.70
2022-10-01T00:28:59.511Z,4.47
2022-10-01T00:31:26.862Z,4.95
2022-10-01T00:33:58.372Z,5.60
2022-10-01T00:36:26.391Z,6.03
2022-10-01T00:38:52.910Z,5.32
2022-10-01T00:41:20.121Z,4.90
2022-10-01T00:44:45.224Z,5.97
2022-10-01T00:47:31.866Z,4.97
2022-10-01T00:50:16.338Z,5.57
2022-10-01T00:52:47.448Z,4.18
2022-10-01T00:55:19.598Z,4.38
2022-10-01T00:57:46.577Z,5.22
2022-10-01T01:00:14.298Z,5.47
2022-10-01T01:02:42.311Z,4.80
2022-10-01T01:05:13.507Z,3.65
2022-10-01T01:07:45.450Z,4.75
2022-10-01T01:10:17.376Z,3.78
2022-10-01T01:13:04.249Z,4.43
2022-10-01T01:15:37.245Z,3.80
2022-10-01T01:18:40.422Z,3.83
2022-10-01T01:21:16.612Z,4.20
2022-10-01T01:24:01.381Z,4.25
2022-10-01T01:26:42.779Z,4.80
2022-10-01T01:29:21.709Z,4.20
2022-10-01T01:31:49.110Z,3.60
2022-10-01T01:34:30.505Z,3.67
2022-10-01T01:37:12.315Z,3.22
2022-10-01T01:39:44.218Z,2.80
2022-10-01T01:42:20.117Z,3.50
2022-10-01T01:44:48.271Z,3.70
2022-10-01T01:47:14.847Z,3.55
2022-10-01T01:49:42.966Z,2.95
2022-10-01T01:52:15.821Z,4.00
2022-10-01T01:54:44.537Z,3.70
2022-10-01T01:57:15.324Z,4.03
2022-10-01T01:59:42.459Z,3.17
2022-10-01T02:02:19.864Z,3.42
2022-10-01T02:04:54.643Z,3.20
2022-10-01T02:08:00.046Z,3.63
2022-10-01T02:10:40.710Z,3.00
2022-10-01T02:13:26.493Z,3.15
2022-10-01T02:16:22.376Z,3.67
2022-10-01T02:18:59.113Z,3.50
2022-10-01T02:21:55.289Z,3.30
2022-10-01T02:24:24.483Z,3.70
2022-10-01T02:26:53.638Z,4.05
2022-10-01T02:29:22.568Z,3.60
2022-10-01T02:31:53.359Z,3.38
2022-10-01T02:34:22.788Z,3.60
2022-10-01T02:36:51.116Z,3.30
2022-10-01T02:39:21.615Z,2.75
2022-10-01T02:41:51.416Z,3.33
2022-10-01T02:44:23.780Z,2.95
2022-10-01T02:46:59.287Z,3.27
2022-10-01T02:49:30.747Z,3.60
2022-10-01T02:52:33.818Z,3.60
2022-10-01T02:55:14.712Z,3.35
2022-10-01T02:57:42.312Z,2.80
2022-10-01T03:00:15.374Z,3.50
2022-10-01T03:02:41.959Z,3.85
2022-10-01T03:05:09.031Z,3.05
2022-10-01T03:07:36.260Z,3.17
2022-10-01T03:10:04.735Z,3.42
2022-10-01T03:12:31.285Z,3.13
2022-10-01T03:14:57.829Z,3.22
2022-10-01T03:17:24.397Z,3.60
2022-10-01T03:19:51.011Z,3.45
2022-10-01T03:22:22.551Z,3.33
2022-10-01T03:24:53.547Z,3.20
2022-10-01T03:27:21.207Z,3.10
2022-10-01T03:29:48.136Z,3.72
2022-10-01T03:32:15.335Z,2.75
2022-10-01T03:34:41.867Z,3.35
2022-10-01T03:37:08.854Z,3.10
2022-10-01T03:39:35.967Z,2.90
2022-10-01T03:42:03.118Z,2.65
2022-10-01T03:44:29.722Z,2.50
2022-10-01T03:46:56.208Z,2.60
2022-10-01T03:49:22.693Z,2.77
2022-10-01T03:51:50.095Z,2.90
2022-10-01T03:54:17.907Z,2.90
2022-10-01T03:56:44.395Z,2.67
2022-10-01T03:59:11.255Z,2.45
2022-10-01T04:01:39.308Z,2.43
2022-10-01T04:04:06.411Z,2.58
2022-10-01T04:06:33.109Z,2.60
2022-10-01T04:08:59.702Z,2.72
2022-10-01T04:11:26.218Z,2.72
2022-10-01T04:13:52.898Z,2.53
2022-10-01T04:16:19.555Z,2.58
2022-10-01T04:18:46.153Z,2.80
2022-10-01T04:21:12.943Z,3.20
2022-10-01T04:23:39.528Z,3.35
2022-10-01T04:26:06.149Z,3.00
2022-10-01T04:28:32.771Z,3.53
2022-10-01T04:31:18.577Z,4.35
2022-10-01T04:33:45.516Z,4.45
2022-10-01T04:36:12.245Z,4.80
2022-10-01T04:38:38.819Z,4.67
2022-10-01T04:41:05.596Z,5.80
2022-10-01T04:43:32.186Z,5.35
2022-10-01T04:45:58.850Z,5.53
2022-10-01T04:48:25.419Z,5.93
2022-10-01T04:50:52.158Z,6.73
2022-10-01T04:53:18.637Z,6.72
2022-10-01T04:55:46.659Z,6.80
2022-10-01T04:58:13.266Z,6.65
2022-10-01T05:00:39.926Z,6.90
2022-10-01T05:03:06.504Z,7.23
2022-10-01T05:05:34.961Z,6.22
2022-10-01T05:08:02.051Z,6.70
2022-10-01T05:10:28.582Z,6.10
2022-10-01T05:12:55.105Z,5.97
2022-10-01T05:15:21.650Z,5.60
2022-10-01T05:17:48.126Z,6.00
2022-10-01T05:20:22.883Z,6.00
2022-10-01T05:22:49.854Z,5.70
2022-10-01T05:25:18.313Z,6.40
2022-10-01T05:27:45.568Z,6.23
2022-10-01T05:30:14.603Z,5.88
2022-10-01T05:32:41.915Z,6.88
2022-10-01T05:35:08.927Z,6.22
2022-10-01T05:37:35.785Z,6.35
2022-10-01T05:40:02.927Z,7.17
2022-10-01T05:42:29.409Z,7.20
2022-10-01T05:44:56.170Z,6.38
2022-10-01T05:47:23.241Z,7.28
2022-10-01T05:49:49.742Z,7.18
2022-10-01T05:52:16.734Z,7.50
2022-10-01T05:54:43.626Z,7.45
2022-10-01T05:57:10.646Z,6.55
2022-10-01T05:59:37.179Z,7.32
2022-10-01T06:02:04.634Z,6.78
2022-10-01T06:04:31.419Z,6.60
2022-10-01T06:06:58.026Z,6.85
2022-10-01T06:09:24.539Z,6.90
2022-10-01T06:11:51.122Z,7.07
2022-10-01T06:14:17.681Z,6.22
2022-10-01T06:16:44.658Z,7.70
2022-10-01T06:19:11.206Z,6.80
2022-10-01T06:21:38.028Z,6.57
2022-10-01T06:24:05.816Z,6.70
2022-10-01T06:26:32.354Z,6.28
2022-10-01T06:28:58.884Z,7.30
2022-10-01T06:31:25.496Z,6.15
2022-10-01T06:33:52.038Z,6.40
2022-10-01T06:36:18.593Z,4.88
2022-10-01T06:38:48.234Z,5.80
2022-10-01T06:41:14.905Z,6.43
2022-10-01T06:43:41.473Z,4.88
2022-10-01T06:46:08.072Z,4.57
2022-10-01T06:48:36.544Z,4.90
2022-10-01T06:51:03.970Z,4.47
2022-10-01T06:53:31.813Z,5.53
2022-10-01T06:56:05.732Z,4.85
2022-10-01T06:58:32.751Z,4.65
2022-10-01T07:01:02.073Z,7.18
2022-10-01T07:03:28.992Z,4.93
2022-10-01T07:06:02.208Z,6.37
2022-10-01T07:08:28.879Z,9.95
2022-10-01T07:11:02.858Z,10.30
2022-10-01T07:13:30.219Z,6.43
2022-10-01T07:15:56.896Z,9.32
2022-10-01T07:18:23.654Z,13.67
2022-10-01T07:20:50.531Z,6.65
2022-10-01T07:23:17.626Z,5.10
2022-10-01T07:25:44.941Z,3.85
2022-10-01T07:28:18.829Z,3.70
2022-10-01T07:30:59.325Z,4.40
2022-10-01T07:33:25.913Z,3.67
2022-10-01T07:35:52.487Z,3.58
2022-10-01T07:38:18.991Z,3.78
2022-10-01T07:40:51.610Z,2.60
2022-10-01T07:43:18.675Z,3.97
2022-10-01T07:45:47.219Z,3.10
2022-10-01T07:48:17.236Z,3.25
2022-10-01T07:50:47.800Z,3.40
2022-10-01T07:53:14.411Z,3.33
2022-10-01T07:55:40.978Z,3.23
2022-10-01T07:58:07.495Z,2.83
2022-10-01T08:00:34.858Z,2.78
2022-10-01T08:03:01.876Z,2.42
2022-10-01T08:05:31.440Z,2.25
2022-10-01T08:08:00.064Z,1.90
2022-10-01T08:10:26.664Z,1.63
2022-10-01T08:12:59.990Z,1.75
2022-10-01T08:15:26.736Z,2.03
2022-10-01T08:17:53.291Z,1.58
2022-10-01T08:20:21.524Z,1.60
2022-10-01T08:22:48.082Z,1.50
2022-10-01T08:25:14.632Z,1.67
2022-10-01T08:27:41.162Z,3.15
2022-10-01T08:30:08.292Z,1.90
2022-10-01T08:32:34.887Z,1.73
2022-10-01T08:35:01.418Z,1.70
2022-10-01T08:37:29.412Z,2.00
2022-10-01T08:39:56.513Z,3.47
2022-10-01T08:42:38.137Z,2.20
2022-10-01T08:45:12.744Z,4.57
2022-10-01T08:47:45.236Z,7.07
2022-10-01T08:50:22.071Z,5.45
2022-10-01T08:53:04.983Z,8.98
2022-10-01T08:55:36.559Z,4.72
2022-10-01T08:58:06.864Z,4.90
2022-10-01T09:00:38.828Z,7.13
2022-10-01T09:03:07.110Z,2.47
2022-10-01T09:05:54.022Z,4.72
2022-10-01T09:08:45.788Z,5.07
2022-10-01T09:11:38.570Z,3.77
2022-10-01T09:14:21.695Z,2.28
2022-10-01T09:16:57.130Z,2.90
2022-10-01T09:19:58.914Z,1.88
2022-10-01T09:22:47.127Z,4.38
2022-10-01T09:25:40.996Z,2.60
2022-10-01T09:28:16.104Z,2.83
2022-10-01T09:31:04.190Z,2.55
2022-10-01T09:33:37.797Z,6.75
2022-10-01T09:36:37.162Z,6.10
2022-10-01T09:39:21.956Z,4.37
2022-10-01T09:41:48.495Z,5.35
2022-10-01T09:44:29.499Z,2.47
2022-10-01T09:46:56.218Z,4.18
2022-10-01T09:49:25.406Z,5.30
2022-10-01T09:51:57.810Z,7.20
2022-10-01T09:55:02.238Z,5.22
2022-10-01T09:57:35.228Z,6.00
2022-10-01T10:00:11.711Z,2.63
2022-10-01T10:02:48.980Z,5.15
2022-10-01T10:05:17.627Z,4.83
2022-10-01T10:07:50.584Z,4.20
2022-10-01T10:10:25.492Z,2.22
2022-10-01T10:12:59.375Z,2.15
2022-10-01T10:15:26.402Z,2.05
2022-10-01T10:17:55.682Z,2.30
2022-10-01T10:20:33.044Z,2.58
2022-10-01T10:23:16.810Z,1.60
2022-10-01T10:25:43.598Z,2.28
2022-10-01T10:28:23.700Z,2.45
2022-10-01T10:30:54.004Z,1.80
2022-10-01T10:33:23.116Z,1.90
2022-10-01T10:36:05.072Z,2.13
2022-10-01T10:38:34.355Z,2.22
2022-10-01T10:41:03.941Z,2.10
2022-10-01T10:43:35.185Z,2.03
2022-10-01T10:46:03.667Z,2.25
2022-10-01T10:48:36.731Z,1.52
2022-10-01T10:51:05.722Z,1.70
2022-10-01T10:53:45.997Z,1.35
2022-10-01T10:56:22.766Z,2.30
2022-10-01T10:58:51.159Z,1.50
2022-10-01T11:01:28.976Z,1.17
2022-10-01T11:03:59.837Z,2.00
2022-10-01T11:06:26.886Z,2.25
2022-10-01T11:09:08.000Z,2.40
2022-10-01T11:11:45.662Z,2.00
2022-10-01T11:14:24.429Z,6.03
2022-10-01T11:17:06.014Z,5.80
2022-10-01T11:20:11.522Z,5.10
2022-10-01T11:23:09.394Z,4.57
2022-10-01T11:25:56.397Z,3.58
2022-10-01T11:28:47.418Z,2.47
2022-10-01T11:31:29.579Z,5.00
2022-10-01T11:34:37.885Z,3.75
2022-10-01T11:37:41.671Z,5.00
2022-10-01T11:40:27.365Z,2.88
2022-10-01T11:43:00.165Z,2.92
2022-10-01T11:45:32.718Z,4.53
2022-10-01T11:48:06.700Z,5.32
2022-10-01T11:50:43.093Z,2.87
2022-10-01T11:53:35.251Z,2.67
2022-10-01T11:56:26.746Z,7.43
2022-10-01T11:58:57.260Z,6.32
2022-10-01T12:01:35.234Z,3.85
2022-10-01T12:04:16.557Z,3.80
2022-10-01T12:06:54.262Z,5.28
2022-10-01T12:09:32.400Z,5.78
2022-10-01T12:12:10.412Z,4.82
2022-10-01T12:14:56.482Z,3.95
2022-10-01T12:17:33.878Z,4.30
2022-10-01T12:20:04.562Z,2.17
2022-10-01T12:22:34.692Z,2.47
2022-10-01T12:25:01.319Z,4.32
2022-10-01T12:27:51.453Z,5.05
2022-10-01T12:30:23.385Z,3.53
2022-10-01T12:33:15.520Z,4.55
2022-10-01T12:35:53.980Z,5.38
2022-10-01T12:38:39.422Z,1.95
2022-10-01T12:41:18.204Z,2.60
2022-10-01T12:44:07.657Z,1.57
2022-10-01T12:47:03.770Z,1.90
2022-10-01T12:50:09.187Z,2.28
2022-10-01T12:52:48.657Z,3.33
2022-10-01T12:56:07.943Z,3.90
2022-10-01T12:58:51.282Z,2.10
2022-10-01T13:01:53.126Z,2.42
2022-10-01T13:04:56.665Z,2.20
2022-10-01T13:07:46.944Z,1.00
2022-10-01T13:10:14.626Z,0.85
2022-10-01T13:12:56.581Z,1.10
2022-10-01T13:15:31.835Z,1.83
2022-10-01T13:18:21.180Z,1.60
2022-10-01T13:21:11.578Z,1.20
2022-10-01T13:23:58.955Z,1.42
2022-10-01T13:26:37.914Z,1.30
2022-10-01T13:29:29.069Z,1.58
2022-10-01T13:32:04.251Z,1.75
2022-10-01T13:34:42.927Z,1.83
2022-10-01T13:37:13.723Z,1.75
2022-10-01T13:39:43.629Z,1.30
2022-10-01T13:42:41.571Z,1.45
2022-10-01T13:45:34.262Z,1.60
2022-10-01T13:48:21.018Z,2.40
2022-10-01T13:51:03.527Z,1.08
2022-10-01T13:53:43.383Z,1.37
2022-10-01T13:56:13.161Z,1.38
2022-10-01T13:58:41.301Z,1.80
2022-10-01T14:01:30.357Z,1.65
2022-10-01T14:04:16.128Z,1.63
2022-10-01T14:06:58.940Z,1.30
2022-10-01T14:09:40.618Z,1.50
2022-10-01T14:12:51.561Z,1.25
2022-10-01T14:15:58.609Z,3.95
2022-10-01T14:18:32.933Z,1.27
2022-10-01T14:21:28.459Z,1.90
2022-10-01T14:24:30.136Z,2.13
2022-10-01T14:27:30.178Z,1.70
2022-10-01T14:29:59.525Z,2.88
2022-10-01T14:32:59.282Z,1.65
2022-10-01T14:35:33.599Z,2.03
2022-10-01T14:38:03.295Z,1.58
2022-10-01T14:40:42.345Z,1.88
2022-10-01T14:43:20.855Z,2.42
2022-10-01T14:46:03.834Z,2.00
2022-10-01T14:48:35.960Z,2.60
2022-10-01T14:51:05.147Z,2.35
2022-10-01T14:53:37.263Z,3.95
2022-10-01T14:56:12.959Z,2.95
2022-10-01T14:58:45.689Z,4.57
2022-10-01T15:01:23.750Z,2.60
2022-10-01T15:03:52.544Z,3.30
2022-10-01T15:06:22.826Z,3.75
2022-10-01T15:08:52.276Z,3.33
2022-10-01T15:11:21.730Z,3.70
2022-10-01T15:13:51.272Z,2.93
2022-10-01T15:16:20.587Z,2.47
2022-10-01T15:18:53.384Z,4.35
2022-10-01T15:21:27.807Z,2.40
2022-10-01T15:23:54.686Z,1.42
2022-10-01T15:26:27.581Z,1.50
2022-10-01T15:29:06.640Z,1.50
2022-10-01T15:31:34.342Z,1.77
2022-10-01T15:34:04.035Z,2.05
2022-10-01T15:36:31.278Z,1.60
2022-10-01T15:38:58.973Z,1.50
2022-10-01T15:41:32.607Z,1.70
2022-10-01T15:44:03.438Z,1.77
2022-10-01T15:46:33.650Z,1.85
2022-10-01T15:49:20.433Z,1.77
2022-10-01T15:52:19.603Z,2.03
2022-10-01T15:54:47.065Z,1.42
2022-10-01T15:57:23.189Z,2.03
2022-10-01T15:59:56.133Z,2.35
2022-10-01T16:02:30.551Z,1.83
2022-10-01T16:05:05.722Z,2.70
2022-10-01T16:07:35.312Z,1.63
2022-10-01T16:10:33.809Z,2.75
2022-10-01T16:13:20.520Z,2.42
2022-10-01T16:16:06.923Z,1.70
2022-10-01T16:18:34.837Z,1.53
2022-10-01T16:21:01.560Z,1.75
2022-10-01T16:23:40.327Z,1.33
2022-10-01T16:26:27.233Z,2.33
2022-10-01T16:28:56.682Z,2.10
2022-10-01T16:31:24.891Z,4.97
2022-10-01T16:33:51.890Z,2.33
2022-10-01T16:36:20.696Z,2.30
2022-10-01T16:38:48.247Z,3.10
2022-10-01T16:41:21.301Z,3.00
2022-10-01T16:43:52.395Z,2.57
2022-10-01T16:46:19.160Z,2.03
2022-10-01T16:48:49.025Z,3.33
2022-10-01T16:51:15.512Z,1.65
2022-10-01T16:53:42.956Z,3.40
2022-10-01T16:56:10.934Z,2.27
2022-10-01T16:58:38.551Z,1.88
2022-10-01T17:01:07.810Z,1.90
2022-10-01T17:03:36.027Z,1.80
2022-10-01T17:06:03.277Z,1.90
2022-10-01T17:08:29.856Z,1.70
2022-10-01T17:10:59.917Z,1.92
2022-10-01T17:13:32.773Z,1.45
2022-10-01T17:16:00.326Z,1.83
2022-10-01T17:18:27.017Z,1.40
2022-10-01T17:20:53.617Z,2.23
2022-10-01T17:23:22.368Z,1.55
2022-10-01T17:25:49.395Z,1.65
2022-10-01T17:28:20.139Z,0.95
2022-10-01T17:30:48.260Z,1.70
2022-10-01T17:33:16.934Z,1.57
2022-10-01T17:35:45.512Z,1.60
2022-10-01T17:38:12.860Z,1.55
2022-10-01T17:40:41.524Z,1.67
2022-10-01T17:43:10.857Z,2.05
2022-10-01T17:45:37.508Z,2.17
2022-10-01T17:48:04.596Z,2.35
2022-10-01T17:50:31.436Z,2.10
2022-10-01T17:52:58.948Z,2.30
2022-10-01T17:55:25.577Z,2.33
2022-10-01T17:57:52.305Z,3.60
2022-10-01T18:00:19.350Z,2.20
2022-10-01T18:02:46.554Z,2.25
2022-10-01T18:05:14.782Z,2.95
2022-10-01T18:07:42.358Z,2.80
2022-10-01T18:10:11.502Z,2.63
2022-10-01T18:12:38.069Z,2.70
2022-10-01T18:15:05.048Z,2.40
2022-10-01T18:17:33.318Z,2.72
2022-10-01T18:20:00.177Z,2.47
2022-10-01T18:22:27.778Z,1.93
2022-10-01T18:24:54.725Z,1.75
2022-10-01T18:27:21.542Z,1.95
2022-10-01T18:29:48.072Z,2.20
2022-10-01T18:32:22.090Z,2.17
2022-10-01T18:35:00.028Z,1.70
2022-10-01T18:37:40.067Z,1.55
2022-10-01T18:40:23.161Z,2.22
2022-10-01T18:43:13.627Z,1.88
2022-10-01T18:46:07.133Z,1.52
2022-10-01T18:48:42.468Z,2.00
2022-10-01T18:51:14.862Z,1.67
2022-10-01T18:54:18.570Z,1.67
2022-10-01T18:56:51.039Z,1.35
2022-10-01T18:59:48.306Z,1.67
2022-10-01T19:02:50.205Z,2.43
2022-10-01T19:05:50.208Z,2.35
2022-10-01T19:08:29.201Z,1.83
2022-10-01T19:10:55.678Z,2.20
2022-10-01T19:13:34.093Z,2.17
2022-10-01T19:16:06.770Z,2.10
2022-10-01T19:18:56.647Z,2.58
2022-10-01T19:21:45.260Z,2.13
2022-10-01T19:24:37.653Z,2.22
2022-10-01T19:27:22.926Z,1.98
2022-10-01T19:30:12.823Z,1.93
2022-10-01T19:32:44.689Z,1.90
2022-10-01T19:35:22.251Z,1.73
2022-10-01T19:37:53.234Z,2.80
2022-10-01T19:40:26.403Z,2.03
2022-10-01T19:43:16.397Z,1.90
2022-10-01T19:45:58.702Z,2.40
2022-10-01T19:48:44.789Z,2.90
2022-10-01T19:51:14.640Z,2.72
2022-10-01T19:53:45.744Z,2.83
2022-10-01T19:56:18.637Z,2.93
2022-10-01T19:58:45.731Z,2.42
2022-10-01T20:01:18.964Z,2.45
2022-10-01T20:04:01.100Z,2.20
2022-10-01T20:06:34.031Z,1.80
2022-10-01T20:09:15.338Z,2.63
2022-10-01T20:11:41.841Z,2.92
2022-10-01T20:14:55.293Z,2.97
2022-10-01T20:17:33.025Z,2.38
2022-10-01T20:20:23.289Z,3.83
2022-10-01T20:23:13.845Z,3.13
2022-10-01T20:25:58.264Z,2.70
2022-10-01T20:28:32.097Z,2.45
2022-10-01T20:31:14.242Z,3.22
2022-10-01T20:34:18.775Z,2.55
2022-10-01T20:36:45.217Z,2.57
2022-10-01T20:39:16.386Z,3.25
2022-10-01T20:41:49.319Z,3.17
2022-10-01T20:44:22.363Z,2.88
2022-10-01T20:46:53.512Z,2.70
2022-10-01T20:49:55.754Z,3.30
2022-10-01T20:52:37.124Z,3.00
2022-10-01T20:55:11.793Z,3.40
2022-10-01T20:57:53.365Z,3.30
2022-10-01T21:00:26.682Z,3.30
2022-10-01T21:03:21.488Z,3.40
2022-10-01T21:05:57.646Z,2.70
2022-10-01T21:08:33.118Z,3.20
2022-10-01T21:11:10.794Z,3.40
2022-10-01T21:14:00.722Z,3.70
2022-10-01T21:17:00.993Z,2.47
2022-10-01T21:20:02.249Z,2.75
2022-10-01T21:22:42.750Z,3.28
2022-10-01T21:25:39.175Z,3.17
2022-10-01T21:28:27.238Z,2.85
2022-10-01T21:31:18.815Z,3.33
2022-10-01T21:33:54.493Z,2.80
2022-10-01T21:36:34.145Z,3.22
2022-10-01T21:39:30.717Z,2.78
2022-10-01T21:41:57.381Z,2.70
2022-10-01T21:44:45.297Z,2.50
2022-10-01T21:47:45.783Z,3.00
2022-10-01T21:50:21.750Z,2.40
2022-10-01T21:53:09.269Z,3.83
2022-10-01T21:55:58.038Z,2.72
2022-10-01T21:58:49.544Z,3.67
2022-10-01T22:01:25.996Z,3.95
2022-10-01T22:04:03.799Z,2.72
2022-10-01T22:06:46.200Z,3.50
2022-10-01T22:09:24.464Z,3.10
2022-10-01T22:11:58.274Z,2.77
2022-10-01T22:14:26.450Z,3.35
2022-10-01T22:16:58.498Z,3.10
2022-10-01T22:19:31.289Z,2.80
2022-10-01T22:22:23.163Z,3.03
2022-10-01T22:24:53.572Z,2.90
2022-10-01T22:27:56.921Z,2.30
2022-10-01T22:30:26.443Z,2.63
2022-10-01T22:33:03.019Z,4.43
2022-10-01T22:36:18.580Z,2.50
2022-10-01T22:38:54.003Z,3.40
2022-10-01T22:41:44.936Z,2.83
2022-10-01T22:44:29.626Z,4.00
2022-10-01T22:47:17.841Z,2.72
2022-10-01T22:49:50.490Z,2.58
2022-10-01T22:52:36.367Z,2.53
2022-10-01T22:55:06.746Z,3.10
2022-10-01T22:58:10.243Z,2.47
2022-10-01T23:00:46.104Z,2.97
2022-10-01T23:03:47.095Z,3.63
2022-10-01T23:06:25.121Z,4.00
2022-10-01T23:08:57.595Z,2.95
2022-10-01T23:11:42.375Z,3.53
2022-10-01T23:14:30.208Z,2.35
2022-10-01T23:17:04.742Z,3.67
2022-10-01T23:19:54.104Z,3.17
2022-10-01T23:22:31.653Z,3.83
2022-10-01T23:25:17.712Z,2.88
2022-10-01T23:28:15.667Z,2.85
2022-10-01T23:30:50.714Z,2.30
2022-10-01T23:33:30.214Z,2.57
2022-10-01T23:36:14.996Z,3.20
2022-10-01T23:39:15.539Z,2.72
2022-10-01T23:41:49.171Z,2.45
2022-10-01T23:44:52.237Z,3.50
2022-10-01T23:47:58.402Z,3.03
2022-10-01T23:50:45.012Z,3.03
2022-10-01T23:53:22.746Z,2.25
2022-10-01T23:56:23.191Z,3.65
2022-10-01T23:59:12.754Z,2.65
